Latest Weather Observations for Parafield

IDS60901

Issued at 11:51 pm CST Tuesday 3 May 2016 (issued every 10 minutes, with the page automatically refreshed every 10 minutes)

About weather observations | Map of Adelaide area stations | Latest observations for Adelaide area | Other Formats
Station Details ID: 023013 Name: PARAFIELD AIRPORT Lat: -34.80 Lon: 138.63 Height: 9.5 m
Data from the previous 72 hours. | See also: Recent months at Parafield
Date/Time
CST
Tmp

°C
App
Tmp
°C
Dew
Point
°C
Rel
Hum
%
Delta-T

°C
Wind Press
QNH
hPa
Press
MSL
hPa
Rain
since
9 am
mm
Dir
 
Spd
km/h
Gust
km/h
Spd
kts
Gust
kts
03/11:30pm 14.2 11.8 10.2 77 2.1 W 13 19 7 10 1013.6 1013.6 1.8
03/11:00pm 14.4 12.1 10.4 77 2.1 W 13 19 7 10 1013.6 1013.6 1.8
03/10:30pm 14.8 12.1 10.4 75 2.3 W 15 20 8 11 1013.6 1013.6 1.8
03/10:00pm 14.2 12.8 10.8 80 1.8 W 9 11 5 6 1013.5 1013.5 1.8
03/09:30pm 14.7 11.7 10.7 77 2.1 SW 17 24 9 13 1013.4 1013.4 1.8
03/09:00pm 15.5 11.3 9.8 69 3.0 WSW 22 30 12 16 1013.1 1013.1 1.8
03/08:30pm 15.4 11.7 10.0 70 2.8 WSW 20 26 11 14 1012.8 1012.8 1.8
03/08:00pm 15.5 12.0 10.3 71 2.7 W 19 24 10 13 1012.4 1012.4 1.8
03/07:30pm 15.6 13.6 11.4 76 2.3 W 13 17 7 9 1012.1 1012.1 1.8
03/07:00pm 15.6 12.4 11.2 75 2.4 W 19 26 10 14 1011.6 1011.6 1.8
03/06:30pm 15.2 11.7 10.8 75 2.3 WSW 20 30 11 16 1011.2 1011.2 1.8
03/06:00pm 15.1 11.4 11.5 79 1.9 W 22 32 12 17 1010.8 1010.8 1.8
03/05:30pm 14.7 11.4 11.7 82 1.6 WSW 20 26 11 14 1010.3 1010.3 1.8
03/05:01pm 14.4 10.2 12.4 88 1.1 WSW 26 39 14 21 1010.0 1010.0 1.8
03/05:00pm 14.4 9.8 12.4 88 1.1 WSW 28 39 15 21 1010.0 1010.0 1.8
03/04:51pm 14.5 8.6 12.5 88 1.1 WSW 35 56 19 30 1009.9 1009.9 1.8
03/04:47pm 14.5 8.3 12.5 88 1.1 WSW 37 56 20 30 1009.7 1009.7 1.6
03/04:41pm 15.7 10.4 12.6 82 1.7 WSW 32 56 17 30 1009.5 1009.5 1.4
03/04:39pm 16.1 11.1 12.3 78 2.1 WSW 30 41 16 22 1009.4 1009.4 1.4
03/04:30pm 16.2 11.7 12.6 79 2.0 WSW 28 37 15 20 1009.3 1009.3 1.4
03/04:22pm 16.3 11.9 13.0 81 1.8 WSW 28 35 15 19 1009.3 1009.3 1.4
03/04:15pm 16.2 11.9 13.1 82 1.7 WSW 28 39 15 21 1009.2 1009.2 1.4
03/04:05pm 16.1 11.1 13.9 87 1.2 WSW 33 44 18 24 1009.1 1009.1 1.4
03/04:00pm 15.8 10.4 13.8 88 1.1 SW 35 46 19 25 1008.9 1008.9 1.4
03/03:55pm 16.0 9.9 14.0 88 1.1 WSW 39 54 21 29 1008.8 1008.8 1.4
03/03:39pm 16.6 11.4 12.9 79 2.1 WSW 32 44 17 24 1008.4 1008.4 1.2
03/03:30pm 16.7 11.8 13.6 82 1.8 WSW 32 46 17 25 1008.2 1008.2 1.2
03/03:00pm 17.7 13.0 14.2 80 2.0 W 32 43 17 23 1007.9 1007.9 1.0
03/02:58pm 17.6 13.0 14.5 82 1.8 W 32 39 17 21 1007.8 1007.8 1.0
03/02:57pm 17.5 12.8 14.4 82 1.8 W 32 43 17 23 1007.8 1007.8 1.0
03/02:42pm 16.1 10.6 13.6 85 1.4 W 35 52 19 28 1007.6 1007.6 1.0
03/02:39pm 16.5 11.4 13.8 84 1.5 W 33 52 18 28 1007.7 1007.7 1.0
03/02:30pm 17.4 13.3 13.9 80 2.0 W 28 39 15 21 1007.5 1007.5 1.0
03/02:01pm 16.5 10.3 12.7 78 2.1 W 37 48 20 26 1007.6 1007.6 1.0
03/02:00pm 16.4 10.2 12.6 78 2.1 W 37 48 20 26 1007.5 1007.5 1.0
03/01:43pm 16.1 9.5 13.6 85 1.4 W 41 67 22 36 1007.3 1007.3 0.8
03/01:41pm 17.5 11.3 13.8 79 2.1 W 39 67 21 36 1007.1 1007.1 0.6
03/01:30pm 20.2 13.9 13.4 65 3.9 WNW 39 50 21 27 1007.0 1007.0 0.4
03/01:00pm 19.6 14.7 13.8 69 3.3 WNW 32 44 17 24 1007.0 1007.0 0.4
03/12:30pm 20.2 14.7 13.6 66 3.8 WNW 35 46 19 25 1007.0 1007.0 0.4
03/12:00pm 18.9 14.1 14.6 76 2.5 WNW 33 41 18 22 1007.4 1007.4 0.4
03/11:30am 17.8 14.0 14.7 82 1.8 WNW 28 43 15 23 1007.6 1007.6 0.4
03/11:22am 17.7 14.5 15.3 86 1.4 WNW 26 39 14 21 1007.8 1007.8 0.4
03/11:12am 17.0 13.0 15.3 90 1.0 WNW 30 39 16 21 1007.9 1007.9 0.4
03/11:00am 16.0 10.7 14.2 89 1.0 W 35 48 19 26 1008.0 1008.0 0.4
03/10:58am 15.8 10.4 14.0 89 1.0 W 35 54 19 29 1008.0 1008.0 0.4
03/10:51am 15.4 9.0 13.1 86 1.3 W 39 56 21 30 1008.0 1008.0 0.2
03/10:48am 16.1 10.5 13.2 83 1.6 W 35 56 19 30 1008.0 1008.0 0.0
03/10:46am 17.4 11.9 13.7 79 2.1 WNW 35 56 19 30 1008.0 1008.0 0.0
03/10:30am 17.7 12.6 14.8 83 1.7 WNW 35 50 19 27 1007.7 1007.7 0.0
03/10:00am 17.9 13.3 14.6 81 1.9 WNW 32 44 17 24 1007.5 1007.5 0.0
03/09:51am 17.9 13.2 14.4 80 2.0 WNW 32 44 17 24 1007.5 1007.5 0.0
03/09:30am 16.6 11.9 14.2 86 1.4 NW 32 43 17 23 1007.8 1007.8 0.0
03/09:20am 15.8 11.5 13.3 85 1.4 NW 28 39 15 21 1007.8 1007.8 0.0
03/09:00am 15.5 10.7 13.0 85 1.4 NW 30 46 16 25 1007.5 1007.5 1.2
03/08:55am 15.7 11.3 12.8 83 1.6 NW 28 43 15 23 1007.5 1007.5 1.0
03/08:53am 15.8 11.8 12.9 83 1.6 NW 26 39 14 21 1007.5 1007.5 1.0
03/08:45am 15.8 11.3 12.5 81 1.8 NNW 28 37 15 20 1007.4 1007.4 1.0
03/08:30am 15.3 10.9 12.8 85 1.4 NNW 28 41 15 22 1007.4 1007.4 1.0
03/08:24am 15.5 11.0 12.6 83 1.6 NNW 28 39 15 21 1007.3 1007.3 0.8
03/08:04am 15.5 11.8 12.6 83 1.6 NW 24 32 13 17 1007.3 1007.3 0.8
03/08:00am 15.2 11.1 12.7 85 1.4 NW 26 41 14 22 1007.3 1007.3 0.8
03/07:48am 15.2 10.3 12.5 84 1.5 NNW 30 41 16 22 1007.4 1007.4 0.8
03/07:30am 15.8 11.0 11.6 76 2.3 NNW 28 35 15 19 1007.2 1007.2 0.8
03/07:00am 15.9 12.2 11.5 75 2.4 NNW 22 37 12 20 1007.0 1007.0 0.8
03/06:30am 14.7 11.7 10.7 77 2.1 N 17 20 9 11 1007.1 1007.1 0.8
03/06:00am 14.4 11.0 10.4 77 2.1 NNW 19 26 10 14 1007.2 1007.2 0.8
03/05:30am 14.0 9.9 10.2 78 2.0 N 22 30 12 16 1006.9 1006.9 0.8
03/05:00am 14.3 10.1 9.9 75 2.3 NNW 22 32 12 17 1007.0 1007.0 0.8
03/04:30am 14.5 9.9 9.7 73 2.5 NNW 24 33 13 18 1007.3 1007.3 0.8
03/04:00am 14.4 10.5 9.4 72 2.6 N 20 30 11 16 1007.4 1007.4 0.8
03/03:30am 13.9 11.1 9.9 77 2.1 N 15 20 8 11 1007.5 1007.5 0.8
03/03:00am 14.2 10.6 10.4 78 2.0 N 20 24 11 13 1007.6 1007.6 0.8
03/02:30am 14.9 11.9 10.7 76 2.2 N 17 24 9 13 1008.2 1008.2 0.8
03/02:00am 16.3 12.9 11.2 72 2.7 NNW 20 26 11 14 1008.4 1008.4 0.8
03/01:30am 16.9 12.8 11.4 70 3.0 NW 24 35 13 19 1009.0 1009.0 0.8
03/01:00am 17.5 13.1 11.8 69 3.1 NW 26 35 14 19 1009.3 1009.3 0.8
03/12:30am 17.7 13.0 11.9 69 3.2 NW 28 39 15 21 1009.4 1009.4 0.8
03/12:00am 17.8 12.7 12.0 69 3.2 NW 30 41 16 22 1009.7 1009.7 0.8
 
Date/Time
CST
Tmp

°C
App
Tmp
°C
Dew
Point
°C
Rel
Hum
%
Delta-T

°C
Wind Press
QNH
hPa
Press
MSL
hPa
Rain
since
9 am
mm
Dir
 
Spd
km/h
Gust
km/h
Spd
kts
Gust
kts
02/11:30pm 17.5 14.2 12.8 74 2.6 NW 22 33 12 18 1010.0 1010.0 0.8
02/11:00pm 16.6 14.3 11.7 73 2.7 NNW 15 20 8 11 1010.4 1010.4 0.8
02/10:30pm 16.5 13.8 11.6 73 2.7 NNW 17 20 9 11 1010.7 1010.7 0.8
02/10:00pm 16.5 14.2 11.9 74 2.5 N 15 20 8 11 1010.9 1010.9 0.8
02/09:30pm 17.0 14.4 12.1 73 2.7 NNW 17 22 9 12 1010.9 1010.9 0.8
02/09:00pm 18.0 14.6 12.5 70 3.1 NW 22 32 12 17 1011.0 1011.0 0.8
02/08:30pm 18.2 14.6 12.0 67 3.4 NW 22 30 12 16 1011.0 1011.0 0.8
02/08:00pm 18.2 15.3 12.2 68 3.3 NW 19 28 10 15 1010.9 1010.9 0.8
02/07:30pm 18.3 15.5 12.5 69 3.2 NW 19 26 10 14 1011.0 1011.0 0.8
02/07:00pm 18.4 15.4 12.4 68 3.3 NW 20 28 11 15 1011.0 1011.0 0.8
02/06:30pm 18.5 16.0 12.3 67 3.4 WNW 17 24 9 13 1010.8 1010.8 0.8
02/06:00pm 18.3 15.4 12.3 68 3.3 NW 19 24 10 13 1010.5 1010.5 0.8
02/05:30pm 18.1 15.1 12.1 68 3.3 NW 19 26 10 14 1010.5 1010.5 0.8
02/05:00pm 18.6 15.0 11.7 64 3.8 NW 22 30 12 16 1010.4 1010.4 0.8
02/04:30pm 18.6 15.5 12.1 66 3.6 NW 20 30 11 16 1010.6 1010.6 0.8
02/04:00pm 17.9 15.5 12.8 72 2.8 NW 17 28 9 15 1011.0 1011.0 0.8
02/03:45pm 17.0 14.2 13.1 78 2.2 WNW 20 30 11 16 1011.2 1011.2 0.8
02/03:30pm 16.1 11.0 13.0 82 1.7 WNW 32 57 17 31 1011.5 1011.5 0.8
02/03:26pm 16.4 11.7 13.3 82 1.7 WNW 30 57 16 31 1011.6 1011.6 0.6
02/03:24pm 17.8 13.2 12.3 70 3.0 WNW 28 54 15 29 1011.3 1011.3 0.0
02/03:00pm 19.4 14.5 11.2 59 4.5 WNW 28 41 15 22 1011.3 1011.3 0.0
02/02:30pm 19.6 13.7 11.1 58 4.6 NW 33 43 18 23 1011.4 1011.4 0.0
02/02:18pm 20.0 14.1 11.0 56 4.9 WNW 33 52 18 28 1011.4 1011.4 0.0
02/02:00pm 19.1 12.7 10.6 58 4.6 NW 35 43 19 23 1011.6 1011.6 0.0
02/01:30pm 19.7 13.7 10.7 56 4.9 NW 33 44 18 24 1011.9 1011.9 0.0
02/01:00pm 19.7 11.9 8.1 47 6.0 NW 39 50 21 27 1012.1 1012.1 0.0
02/12:30pm 19.6 13.3 8.9 50 5.6 NW 32 41 17 22 1012.6 1012.6 0.0
02/12:00pm 19.7 14.0 9.9 53 5.2 NW 30 41 16 22 1013.0 1013.0 0.0
02/11:30am 18.2 14.5 10.1 59 4.3 NW 20 30 11 16 1013.5 1013.5 0.0
02/11:00am 17.7 12.6 9.3 58 4.4 NW 26 37 14 20 1013.9 1013.9 0.0
02/10:30am 17.9 12.4 9.3 57 4.5 NW 28 41 15 22 1014.2 1014.2 0.0
02/10:00am 16.9 12.8 8.6 58 4.3 NW 20 30 11 16 1014.5 1014.5 0.0
02/09:30am 16.1 11.5 8.1 59 4.0 NNW 22 30 12 16 1014.6 1014.6 0.0
02/09:00am 15.8 11.8 8.3 61 3.8 N 19 30 10 16 1014.6 1014.6 0.4
02/08:30am 14.2 10.4 7.5 64 3.3 N 17 22 9 12 1014.7 1014.7 0.4
02/08:00am 13.1 8.8 6.9 66 3.0 N 19 26 10 14 1014.6 1014.6 0.4
02/07:30am 11.7 8.1 6.6 71 2.4 N 15 20 8 11 1014.5 1014.5 0.4
02/07:00am 11.1 7.4 6.5 73 2.2 N 15 20 8 11 1014.4 1014.4 0.4
02/06:30am 11.6 7.6 6.5 71 2.4 N 17 20 9 11 1014.3 1014.3 0.4
02/06:00am 12.5 7.9 6.5 67 2.9 N 20 24 11 13 1014.2 1014.2 0.4
02/05:30am 13.0 8.7 6.8 66 3.0 N 19 24 10 13 1014.1 1014.1 0.4
02/05:00am 12.7 9.4 8.0 73 2.3 N 15 19 8 10 1014.1 1014.1 0.4
02/04:30am 12.5 8.5 8.2 75 2.1 N 19 24 10 13 1014.3 1014.3 0.4
02/04:00am 11.8 8.6 8.5 80 1.6 N 15 17 8 9 1014.6 1014.6 0.4
02/03:30am 11.7 9.0 8.9 83 1.4 NNE 13 15 7 8 1014.9 1014.9 0.4
02/03:00am 11.8 9.4 8.8 82 1.5 N 11 15 6 8 1015.4 1015.4 0.4
02/02:30am 12.8 9.0 8.9 77 2.0 N 19 26 10 14 1015.8 1015.8 0.4
02/02:00am 13.0 10.5 8.1 72 2.4 N 11 13 6 7 1015.9 1015.9 0.2
02/01:30am 13.1 9.4 8.0 71 2.5 N 17 20 9 11 1016.1 1016.1 0.2
02/01:00am 13.2 10.2 7.6 69 2.7 N 13 17 7 9 1016.5 1016.5 0.2
02/12:30am 13.4 10.0 7.8 69 2.8 N 15 20 8 11 1016.6 1016.6 0.2
02/12:00am 13.4 11.4 8.7 73 2.4 N 9 11 5 6 1016.8 1016.8 0.2
 
Date/Time
CST
Tmp

°C
App
Tmp
°C
Dew
Point
°C
Rel
Hum
%
Delta-T

°C
Wind Press
QNH
hPa
Press
MSL
hPa
Rain
since
9 am
mm
Dir
 
Spd
km/h
Gust
km/h
Spd
kts
Gust
kts
01/11:30pm 13.5 12.0 9.2 75 2.2 N 7 9 4 5 1017.1 1017.1 0.2
01/11:00pm 13.3 12.6 10.1 81 1.7 N 4 7 2 4 1017.2 1017.2 0.2
01/10:30pm 13.5 11.4 9.7 78 1.9 NE 11 11 6 6 1017.5 1017.5 0.2
01/10:00pm 13.6 12.3 10.0 79 1.9 NE 7 9 4 5 1017.9 1017.9 0.2
01/09:30pm 13.2 12.2 10.9 86 1.2 E 7 7 4 4 1018.2 1018.2 0.2
01/09:00pm 13.5 11.9 10.1 80 1.8 NNE 9 11 5 6 1018.2 1018.2 0.2
01/08:30pm 13.9 12.1 9.5 75 2.2 WNW 9 13 5 7 1018.2 1018.2 0.2
01/08:00pm 15.5 12.5 6.0 53 4.6 NNW 11 13 6 7 1018.0 1018.0 0.0
01/07:30pm 15.5 13.0 6.5 55 4.4 NNW 9 11 5 6 1017.9 1017.9 0.0
01/07:00pm 15.5 13.3 6.0 53 4.6 NNW 7 9 4 5 1017.9 1017.9 0.0
01/06:30pm 15.5 13.3 6.2 54 4.5 NW 7 9 4 5 1017.7 1017.7 0.0
01/06:00pm 15.6 13.6 6.1 53 4.6 WNW 6 9 3 5 1017.5 1017.5 0.0
01/05:30pm 15.7 12.8 4.4 47 5.3 WSW 9 13 5 7 1017.4 1017.4 0.0
01/05:00pm 15.6 12.5 3.7 45 5.5 SW 9 17 5 9 1017.2 1017.2 0.0
01/04:30pm 16.8 12.9 3.5 41 6.1 SSW 13 20 7 11 1017.1 1017.1 0.0
01/04:00pm 17.3 12.6 3.2 39 6.5 SW 17 24 9 13 1017.0 1017.0 0.0
01/03:30pm 17.8 12.7 3.3 38 6.7 WSW 19 26 10 14 1016.9 1016.9 0.0
01/03:00pm 17.8 13.3 4.4 41 6.3 SW 17 28 9 15 1016.9 1016.9 0.0
01/02:30pm 17.8 12.8 4.4 41 6.3 SW 20 28 11 15 1016.6 1016.6 0.0
01/02:00pm 18.4 14.2 5.6 43 6.2 SW 17 24 9 13 1016.5 1016.5 0.0
01/01:30pm 17.6 12.0 5.2 44 6.0 WSW 24 32 13 17 1016.6 1016.6 0.0
01/01:00pm 17.9 12.3 5.2 43 6.1 SW 24 35 13 19 1016.5 1016.5 0.0
01/12:30pm 18.0 12.1 5.6 44 6.0 WSW 26 35 14 19 1016.7 1016.7 0.0
01/12:00pm 17.8 12.0 6.3 47 5.7 SW 26 35 14 19 1016.8 1016.8 0.0
01/11:30am 17.8 11.6 6.3 47 5.7 SW 28 41 15 22 1017.1 1017.1 0.0
01/11:00am 17.4 10.9 6.3 48 5.5 SW 30 39 16 21 1017.0 1017.0 0.0
01/10:30am 17.6 10.6 6.2 47 5.6 SW 32 41 17 22 1016.7 1016.7 0.0
01/10:00am 17.1 11.4 8.5 57 4.4 SW 28 41 15 22 1016.7 1016.7 0.0
01/09:30am 16.5 10.0 8.0 57 4.3 WSW 32 43 17 23 1016.6 1016.6 0.0
01/09:00am 16.1 10.1 8.6 61 3.8 WSW 30 37 16 20 1016.7 1016.7 4.8
01/08:30am 15.3 10.2 7.8 61 3.7 WSW 24 33 13 18 1016.4 1016.4 4.8
01/08:00am 14.6 8.5 8.3 66 3.2 WSW 30 46 16 25 1016.0 1016.0 4.8
01/07:35am 14.5 7.4 6.3 58 3.9 WSW 33 52 18 28 1015.5 1015.5 4.8
01/07:30am 14.6 7.1 6.4 58 4.0 WSW 35 52 19 28 1015.4 1015.4 4.8
01/07:20am 14.6 8.0 5.9 56 4.2 WSW 30 50 16 27 1015.2 1015.2 4.8
01/07:00am 14.2 7.3 6.6 60 3.7 W 32 43 17 23 1014.9 1014.9 4.8
01/06:30am 14.1 6.2 6.2 59 3.8 W 37 50 20 27 1014.5 1014.5 4.8
01/06:00am 14.2 8.4 7.9 66 3.1 W 28 43 15 23 1014.1 1014.1 4.8
01/05:30am 14.2 8.4 9.4 73 2.5 W 30 43 16 23 1013.7 1013.7 4.8
01/05:00am 13.7 8.3 9.4 75 2.2 W 28 37 15 20 1013.2 1013.2 4.8
01/04:30am 13.4 7.5 9.1 75 2.2 W 30 41 16 22 1012.8 1012.8 4.8
01/04:00am 13.3 7.0 8.8 74 2.3 WSW 32 48 17 26 1012.1 1012.1 4.4
01/03:58am 13.6 7.7 9.1 74 2.3 W 30 48 16 26 1012.0 1012.0 4.4
01/03:40am 13.4 8.8 9.8 79 1.8 W 24 37 13 20 1011.7 1011.7 4.4
01/03:30am 12.7 6.9 9.3 80 1.7 W 30 41 16 22 1011.7 1011.7 4.4
01/03:11am 12.9 5.4 9.5 80 1.7 WSW 39 59 21 32 1011.5 1011.5 1.4
01/03:09am 13.2 5.7 9.6 79 1.8 W 39 59 21 32 1011.5 1011.5 1.0
01/03:06am 14.6 7.4 9.0 69 2.9 W 37 59 20 32 1011.3 1011.3 0.6
01/03:00am 16.1 9.3 9.1 63 3.6 WNW 35 50 19 27 1010.9 1010.9 0.4
01/02:30am 15.6 10.6 9.7 68 3.1 WNW 26 39 14 21 1010.8 1010.8 0.4
01/02:00am 15.2 10.5 10.8 75 2.3 W 26 37 14 20 1010.8 1010.8 0.4
01/01:30am 15.9 9.9 10.0 68 3.1 W 32 43 17 23 1010.7 1010.7 0.2
01/01:00am 15.8 9.5 9.7 67 3.2 W 33 46 18 25 1010.4 1010.4 0.2
01/12:35am 16.2 9.1 9.4 64 3.5 W 37 56 20 30 1010.2 1010.2 0.2
01/12:30am 16.4 8.9 9.3 63 3.7 W 39 56 21 30 1010.1 1010.1 0.2
01/12:20am 16.4 9.7 9.6 64 3.5 W 35 56 19 30 1010.0 1010.0 0.2
01/12:00am 16.6 9.1 10.7 68 3.2 W 41 54 22 29 1009.9 1009.9 0.2

Latest Capital City Observations: Canberra | Sydney | Melbourne | Brisbane | Adelaide | Perth | Hobart | Darwin

Other Formats:

Comma delimited format used in spreadsheet applications
http://www.bom.gov.au/fwo/IDS60901/IDS60901.95677.axf

JavaScript Object Notation format (JSON) in row-major order
http://www.bom.gov.au/fwo/IDS60901/IDS60901.95677.json